sensor_id;sensor_type;location;lat;lon;timestamp;pressure;altitude;pressure_sealevel;temperature;humidity
34081;BME280;20358;50.272;19.026;2023-02-28T00:02:06;99455.72;;;-0.71;42.92
34081;BME280;20358;50.272;19.026;2023-02-28T00:05:14;99463.63;;;-0.81;43.29
34081;BME280;20358;50.272;19.026;2023-02-28T00:08:22;99461.13;;;-0.89;43.63
34081;BME280;20358;50.272;19.026;2023-02-28T00:11:29;99460.38;;;-1.00;43.73
34081;BME280;20358;50.272;19.026;2023-02-28T00:14:35;99365.06;;;-1.57;43.83
34081;BME280;20358;50.272;19.026;2023-02-28T00:17:44;99442.44;;;-1.21;43.89
34081;BME280;20358;50.272;19.026;2023-02-28T00:20:51;99453.59;;;-1.16;43.27
34081;BME280;20358;50.272;19.026;2023-02-28T00:23:57;99458.00;;;-1.24;43.66
34081;BME280;20358;50.272;19.026;2023-02-28T00:27:03;99463.22;;;-1.25;44.04
34081;BME280;20358;50.272;19.026;2023-02-28T00:30:13;99439.16;;;-1.38;43.81
34081;BME280;20358;50.272;19.026;2023-02-28T00:33:24;99458.97;;;-1.34;44.37
34081;BME280;20358;50.272;19.026;2023-02-28T00:36:29;99467.78;;;-1.53;44.02
34081;BME280;20358;50.272;19.026;2023-02-28T00:39:40;99475.66;;;-1.68;45.17
34081;BME280;20358;50.272;19.026;2023-02-28T00:42:45;99480.91;;;-1.77;45.83
34081;BME280;20358;50.272;19.026;2023-02-28T00:45:52;99474.00;;;-1.78;46.21
34081;BME280;20358;50.272;19.026;2023-02-28T00:49:01;99470.59;;;-1.82;46.03
34081;BME280;20358;50.272;19.026;2023-02-28T00:52:07;99463.72;;;-1.84;46.83
34081;BME280;20358;50.272;19.026;2023-02-28T00:55:13;99465.44;;;-1.86;47.02
34081;BME280;20358;50.272;19.026;2023-02-28T00:58:19;99479.25;;;-1.87;46.71
34081;BME280;20358;50.272;19.026;2023-02-28T01:01:25;99477.50;;;-1.85;47.46
34081;BME280;20358;50.272;19.026;2023-02-28T01:04:36;99480.94;;;-1.80;47.50
34081;BME280;20358;50.272;19.026;2023-02-28T01:07:42;99470.56;;;-1.80;47.29
34081;BME280;20358;50.272;19.026;2023-02-28T01:10:48;99471.44;;;-1.77;47.85
34081;BME280;20358;50.272;19.026;2023-02-28T01:13:54;99472.34;;;-1.88;48.25
34081;BME280;20358;50.272;19.026;2023-02-28T01:17:01;99454.28;;;-1.95;48.18
34081;BME280;20358;50.272;19.026;2023-02-28T01:20:10;99469.81;;;-1.93;48.52
34081;BME280;20358;50.272;19.026;2023-02-28T01:23:18;99476.72;;;-1.92;48.51
34081;BME280;20358;50.272;19.026;2023-02-28T01:26:23;99467.16;;;-1.85;49.04
34081;BME280;20358;50.272;19.026;2023-02-28T01:29:30;99472.38;;;-1.92;48.69
34081;BME280;20358;50.272;19.026;2023-02-28T01:32:36;99460.34;;;-2.02;49.33
34081;BME280;20358;50.272;19.026;2023-02-28T01:35:45;99455.19;;;-2.02;49.36
34081;BME280;20358;50.272;19.026;2023-02-28T01:38:51;99456.97;;;-2.10;49.83
34081;BME280;20358;50.272;19.026;2023-02-28T01:41:58;99455.22;;;-2.09;50.20
34081;BME280;20358;50.272;19.026;2023-02-28T01:45:17;99456.19;;;-2.24;50.25
34081;BME280;20358;50.272;19.026;2023-02-28T01:48:32;99457.94;;;-2.27;51.19
34081;BME280;20358;50.272;19.026;2023-02-28T01:51:48;99446.78;;;-2.37;51.28
34081;BME280;20358;50.272;19.026;2023-02-28T01:55:00;99455.38;;;-2.32;51.06
34081;BME280;20358;50.272;19.026;2023-02-28T01:58:10;99455.38;;;-2.35;51.19
34081;BME280;20358;50.272;19.026;2023-02-28T02:01:18;99443.38;;;-2.45;51.15
34081;BME280;20358;50.272;19.026;2023-02-28T02:04:35;99440.78;;;-2.45;52.03
34081;BME280;20358;50.272;19.026;2023-02-28T02:07:52;99443.38;;;-2.51;51.72
34081;BME280;20358;50.272;19.026;2023-02-28T02:11:02;99448.63;;;-2.60;51.37
34081;BME280;20358;50.272;19.026;2023-02-28T02:14:28;99442.63;;;-2.70;52.58
34081;BME280;20358;50.272;19.026;2023-02-28T02:17:49;99442.66;;;-2.76;51.63
34081;BME280;20358;50.272;19.026;2023-02-28T02:21:26;99434.06;;;-2.90;51.98
34081;BME280;20358;50.272;19.026;2023-02-28T02:25:01;99349.00;;;-3.46;52.78
34081;BME280;20358;50.272;19.026;2023-02-28T02:28:59;99447.00;;;-2.88;53.19
34081;BME280;20358;50.272;19.026;2023-02-28T02:32:42;99440.09;;;-2.89;52.70
34081;BME280;20358;50.272;19.026;2023-02-28T02:36:14;99431.56;;;-3.06;53.14
34081;BME280;20358;50.272;19.026;2023-02-28T02:39:35;99439.31;;;-3.09;52.97
34081;BME280;20358;50.272;19.026;2023-02-28T02:42:56;99417.81;;;-3.33;53.85
34081;BME280;20358;50.272;19.026;2023-02-28T02:46:12;99440.22;;;-3.30;53.89
34081;BME280;20358;50.272;19.026;2023-02-28T02:49:28;99433.31;;;-3.33;54.09
34081;BME280;20358;50.272;19.026;2023-02-28T02:52:44;99435.06;;;-3.35;54.44
34081;BME280;20358;50.272;19.026;2023-02-28T02:55:59;99442.78;;;-3.36;53.24
34081;BME280;20358;50.272;19.026;2023-02-28T02:59:11;99435.91;;;-3.46;54.33
34081;BME280;20358;50.272;19.026;2023-02-28T03:02:26;99443.66;;;-3.49;53.92
34081;BME280;20358;50.272;19.026;2023-02-28T03:05:42;99446.28;;;-3.55;54.05
34081;BME280;20358;50.272;19.026;2023-02-28T03:08:56;99448.84;;;-3.63;54.00
34081;BME280;20358;50.272;19.026;2023-02-28T03:12:03;99448.00;;;-3.66;54.68
34081;BME280;20358;50.272;19.026;2023-02-28T03:15:21;99446.25;;;-3.64;55.33
34081;BME280;20358;50.272;19.026;2023-02-28T03:18:46;99444.56;;;-3.68;55.13
34081;BME280;20358;50.272;19.026;2023-02-28T03:22:14;99447.13;;;-3.70;54.69
34081;BME280;20358;50.272;19.026;2023-02-28T03:25:41;99447.97;;;-3.69;55.25
34081;BME280;20358;50.272;19.026;2023-02-28T03:29:04;99443.69;;;-3.66;55.62
34081;BME280;20358;50.272;19.026;2023-02-28T03:32:21;99448.84;;;-3.61;54.67
34081;BME280;20358;50.272;19.026;2023-02-28T03:35:37;99455.72;;;-3.56;54.71
34081;BME280;20358;50.272;19.026;2023-02-28T03:38:51;99455.72;;;-3.50;54.99
34081;BME280;20358;50.272;19.026;2023-02-28T03:42:12;99460.88;;;-3.44;54.60
34081;BME280;20358;50.272;19.026;2023-02-28T03:45:25;99463.47;;;-3.42;54.14
34081;BME280;20358;50.272;19.026;2023-02-28T03:48:41;99465.19;;;-3.43;55.12
34081;BME280;20358;50.272;19.026;2023-02-28T03:51:51;99462.59;;;-3.49;54.99
34081;BME280;20358;50.272;19.026;2023-02-28T03:55:05;99463.47;;;-3.62;54.67
34081;BME280;20358;50.272;19.026;2023-02-28T03:58:24;99467.78;;;-3.58;54.82
34081;BME280;20358;50.272;19.026;2023-02-28T04:01:39;99464.31;;;-3.60;54.46
34081;BME280;20358;50.272;19.026;2023-02-28T04:04:47;99465.19;;;-3.67;54.77
34081;BME280;20358;50.272;19.026;2023-02-28T04:08:03;99464.31;;;-3.75;55.64
34081;BME280;20358;50.272;19.026;2023-02-28T04:11:22;99479.81;;;-3.84;55.00
34081;BME280;20358;50.272;19.026;2023-02-28T04:14:37;99455.72;;;-3.92;55.70
34081;BME280;20358;50.272;19.026;2023-02-28T04:17:42;99465.19;;;-3.90;54.92
34081;BME280;20358;50.272;19.026;2023-02-28T04:20:48;99477.22;;;-3.89;55.91
34081;BME280;20358;50.272;19.026;2023-02-28T04:23:54;99477.22;;;-3.90;55.84
34081;BME280;20358;50.272;19.026;2023-02-28T04:27:03;99483.22;;;-3.91;55.71
34081;BME280;20358;50.272;19.026;2023-02-28T04:30:12;99481.50;;;-3.98;55.08
34081;BME280;20358;50.272;19.026;2023-02-28T04:33:19;99490.09;;;-3.96;55.75
34081;BME280;20358;50.272;19.026;2023-02-28T04:36:24;99492.69;;;-3.96;55.59
34081;BME280;20358;50.272;19.026;2023-02-28T04:39:35;99490.09;;;-3.96;56.29
34081;BME280;20358;50.272;19.026;2023-02-28T04:42:41;99494.44;;;-3.97;55.52
34081;BME280;20358;50.272;19.026;2023-02-28T04:45:50;99494.44;;;-3.97;55.79
34081;BME280;20358;50.272;19.026;2023-02-28T04:48:56;99495.28;;;-3.93;55.32
34081;BME280;20358;50.272;19.026;2023-02-28T04:52:03;99498.72;;;-3.90;55.27
34081;BME280;20358;50.272;19.026;2023-02-28T04:55:09;99501.31;;;-3.87;55.17
34081;BME280;20358;50.272;19.026;2023-02-28T04:58:16;99504.75;;;-3.86;55.16
34081;BME280;20358;50.272;19.026;2023-02-28T05:01:26;99493.56;;;-3.93;56.12
34081;BME280;20358;50.272;19.026;2023-02-28T05:04:35;99500.44;;;-3.87;55.18
34081;BME280;20358;50.272;19.026;2023-02-28T05:07:41;99500.44;;;-3.89;55.52
34081;BME280;20358;50.272;19.026;2023-02-28T05:10:48;99496.13;;;-3.88;55.18
34081;BME280;20358;50.272;19.026;2023-02-28T05:13:53;99496.16;;;-3.87;55.97
34081;BME280;20358;50.272;19.026;2023-02-28T05:17:02;99505.63;;;-3.84;55.66
34081;BME280;20358;50.272;19.026;2023-02-28T05:20:09;99502.16;;;-3.83;56.40
34081;BME280;20358;50.272;19.026;2023-02-28T05:23:20;99488.38;;;-3.91;56.04
34081;BME280;20358;50.272;19.026;2023-02-28T05:26:27;99505.59;;;-3.90;56.47
34081;BME280;20358;50.272;19.026;2023-02-28T05:29:34;99509.03;;;-3.97;55.63
34081;BME280;20358;50.272;19.026;2023-02-28T05:32:51;99508.16;;;-4.02;55.93
34081;BME280;20358;50.272;19.026;2023-02-28T05:35:57;99503.84;;;-4.09;56.67
34081;BME280;20358;50.272;19.026;2023-02-28T05:39:03;99515.84;;;-4.14;56.80
34081;BME280;20358;50.272;19.026;2023-02-28T05:42:15;99527.88;;;-4.19;56.47
34081;BME280;20358;50.272;19.026;2023-02-28T05:45:21;99522.72;;;-4.22;56.25
34081;BME280;20358;50.272;19.026;2023-02-28T05:48:30;99528.72;;;-4.25;56.83
34081;BME280;20358;50.272;19.026;2023-02-28T05:51:36;99520.13;;;-4.27;56.97
34081;BME280;20358;50.272;19.026;2023-02-28T05:54:42;99529.59;;;-4.24;57.27
34081;BME280;20358;50.272;19.026;2023-02-28T05:57:48;99535.63;;;-4.25;57.65
34081;BME280;20358;50.272;19.026;2023-02-28T06:00:55;99536.47;;;-4.26;56.41
34081;BME280;20358;50.272;19.026;2023-02-28T06:04:06;99539.91;;;-4.24;57.58
34081;BME280;20358;50.272;19.026;2023-02-28T06:07:27;99539.03;;;-4.25;56.41
34081;BME280;20358;50.272;19.026;2023-02-28T06:10:33;99537.34;;;-4.23;56.69
34081;BME280;20358;50.272;19.026;2023-02-28T06:13:39;99543.34;;;-4.19;56.70
34081;BME280;20358;50.272;19.026;2023-02-28T06:16:45;99505.47;;;-4.42;57.61
34081;BME280;20358;50.272;19.026;2023-02-28T06:19:55;99541.63;;;-4.17;57.37
34081;BME280;20358;50.272;19.026;2023-02-28T06:23:01;99560.56;;;-4.18;57.05
34081;BME280;20358;50.272;19.026;2023-02-28T06:26:08;99554.53;;;-4.19;57.38
34081;BME280;20358;50.272;19.026;2023-02-28T06:29:15;99563.13;;;-4.17;56.78
34081;BME280;20358;50.272;19.026;2023-02-28T06:32:22;99552.81;;;-4.21;56.45
34081;BME280;20358;50.272;19.026;2023-02-28T06:35:31;99551.97;;;-4.14;57.26
34081;BME280;20358;50.272;19.026;2023-02-28T06:38:38;99564.06;;;-4.01;57.26
34081;BME280;20358;50.272;19.026;2023-02-28T06:41:44;99565.75;;;-4.12;56.93
34081;BME280;20358;50.272;19.026;2023-02-28T06:44:58;99561.47;;;-4.07;57.71
34081;BME280;20358;50.272;19.026;2023-02-28T06:48:05;99564.94;;;-4.02;56.51
34081;BME280;20358;50.272;19.026;2023-02-28T06:51:16;99562.38;;;-3.93;57.37
34081;BME280;20358;50.272;19.026;2023-02-28T06:54:25;99558.09;;;-3.81;56.83
34081;BME280;20358;50.272;19.026;2023-02-28T06:57:32;99567.59;;;-3.69;56.33
34081;BME280;20358;50.272;19.026;2023-02-28T07:00:39;99567.59;;;-3.60;56.74
34081;BME280;20358;50.272;19.026;2023-02-28T07:03:46;99572.75;;;-3.57;56.90
34081;BME280;20358;50.272;19.026;2023-02-28T07:06:57;99317.97;;;-5.06;55.79
34081;BME280;20358;50.272;19.026;2023-02-28T07:10:04;99579.66;;;-3.44;55.82
34081;BME280;20358;50.272;19.026;2023-02-28T07:13:10;99584.84;;;-3.29;56.82
34081;BME280;20358;50.272;19.026;2023-02-28T07:16:18;99584.88;;;-3.17;55.21
34081;BME280;20358;50.272;19.026;2023-02-28T07:19:23;99593.47;;;-3.02;55.67
34081;BME280;20358;50.272;19.026;2023-02-28T07:22:33;99588.31;;;-2.96;54.94
34081;BME280;20358;50.272;19.026;2023-02-28T07:25:38;99585.72;;;-2.93;55.30
34081;BME280;20358;50.272;19.026;2023-02-28T07:28:46;99585.72;;;-2.86;55.02
34081;BME280;20358;50.272;19.026;2023-02-28T07:31:53;99589.16;;;-2.78;54.58
34081;BME280;20358;50.272;19.026;2023-02-28T07:34:59;99584.81;;;-2.71;54.66
34081;BME280;20358;50.272;19.026;2023-02-28T07:38:08;99582.22;;;-2.67;54.41
34081;BME280;20358;50.272;19.026;2023-02-28T07:41:17;99589.97;;;-2.59;53.67
34081;BME280;20358;50.272;19.026;2023-02-28T07:44:30;99583.03;;;-2.45;53.04
34081;BME280;20358;50.272;19.026;2023-02-28T07:47:36;99586.47;;;-2.37;52.82
34081;BME280;20358;50.272;19.026;2023-02-28T07:50:42;99576.13;;;-2.34;51.75
34081;BME280;20358;50.272;19.026;2023-02-28T07:53:53;99582.09;;;-2.18;52.11
34081;BME280;20358;50.272;19.026;2023-02-28T07:56:59;99588.97;;;-2.14;51.29
34081;BME280;20358;50.272;19.026;2023-02-28T08:00:10;99593.28;;;-2.10;50.74
34081;BME280;20358;50.272;19.026;2023-02-28T08:03:19;99584.59;;;-2.02;50.74
34081;BME280;20358;50.272;19.026;2023-02-28T08:06:26;99584.59;;;-1.97;49.72
34081;BME280;20358;50.272;19.026;2023-02-28T08:09:35;99582.84;;;-1.97;49.38
34081;BME280;20358;50.272;19.026;2023-02-28T08:12:42;99577.72;;;-2.03;48.61
34081;BME280;20358;50.272;19.026;2023-02-28T08:15:47;99588.00;;;-1.91;49.10
34081;BME280;20358;50.272;19.026;2023-02-28T08:18:54;99590.56;;;-1.83;48.60
34081;BME280;20358;50.272;19.026;2023-02-28T08:21:59;99586.22;;;-1.76;48.45
34081;BME280;20358;50.272;19.026;2023-02-28T08:25:09;99590.47;;;-1.66;48.68
34081;BME280;20358;50.272;19.026;2023-02-28T08:28:14;99574.03;;;-1.62;49.00
34081;BME280;20358;50.272;19.026;2023-02-28T08:31:20;99585.13;;;-1.42;47.90
34081;BME280;20358;50.272;19.026;2023-02-28T08:34:26;99580.75;;;-1.34;47.47
34081;BME280;20358;50.272;19.026;2023-02-28T08:37:32;99583.28;;;-1.23;47.60
34081;BME280;20358;50.272;19.026;2023-02-28T08:40:41;99587.56;;;-1.18;47.26
34081;BME280;20358;50.272;19.026;2023-02-28T08:43:47;99588.41;;;-1.14;46.59
34081;BME280;20358;50.272;19.026;2023-02-28T08:46:52;99596.13;;;-1.07;46.42
34081;BME280;20358;50.272;19.026;2023-02-28T08:49:59;99593.47;;;-1.02;46.41
34081;BME280;20358;50.272;19.026;2023-02-28T08:53:04;99589.03;;;-0.90;46.10
34081;BME280;20358;50.272;19.026;2023-02-28T08:56:15;99589.00;;;-0.84;45.85
34081;BME280;20358;50.272;19.026;2023-02-28T08:59:22;99587.06;;;-0.63;45.89
34081;BME280;20358;50.272;19.026;2023-02-28T09:02:28;99597.31;;;-0.45;45.86
34081;BME280;20358;50.272;19.026;2023-02-28T09:05:34;99583.34;;;-0.35;45.75
34081;BME280;20358;50.272;19.026;2023-02-28T09:08:41;99591.88;;;-0.26;44.85
34081;BME280;20358;50.272;19.026;2023-02-28T09:11:50;99584.94;;;-0.22;45.03
34081;BME280;20358;50.272;19.026;2023-02-28T09:14:56;99581.47;;;-0.21;45.53
34081;BME280;20358;50.272;19.026;2023-02-28T09:18:02;99587.28;;;-0.01;45.64
34081;BME280;20358;50.272;19.026;2023-02-28T09:21:13;99593.16;;;0.13;44.89
34081;BME280;20358;50.272;19.026;2023-02-28T09:24:20;99587.84;;;0.22;44.43
34081;BME280;20358;50.272;19.026;2023-02-28T09:27:29;99585.03;;;0.39;44.68
34081;BME280;20358;50.272;19.026;2023-02-28T09:30:36;99590.06;;;0.49;44.21
34081;BME280;20358;50.272;19.026;2023-02-28T09:33:43;99576.22;;;0.49;42.65
34081;BME280;20358;50.272;19.026;2023-02-28T09:36:48;99589.97;;;0.57;42.95
34081;BME280;20358;50.272;19.026;2023-02-28T09:39:58;99580.53;;;0.48;41.49
34081;BME280;20358;50.272;19.026;2023-02-28T09:43:15;99583.19;;;0.45;41.87
34081;BME280;20358;50.272;19.026;2023-02-28T09:46:33;99517.00;;;0.08;43.05
34081;BME280;20358;50.272;19.026;2023-02-28T09:49:46;99580.50;;;0.51;42.80
34081;BME280;20358;50.272;19.026;2023-02-28T09:52:55;99595.00;;;0.68;42.78
34081;BME280;20358;50.272;19.026;2023-02-28T09:56:05;99594.13;;;0.67;42.97
34081;BME280;20358;50.272;19.026;2023-02-28T09:59:32;99591.66;;;0.60;41.60
34081;BME280;20358;50.272;19.026;2023-02-28T10:03:06;99600.38;;;0.55;42.50
34081;BME280;20358;50.272;19.026;2023-02-28T10:06:37;99590.78;;;0.57;42.27
34081;BME280;20358;50.272;19.026;2023-02-28T10:09:53;99600.38;;;0.55;42.00
34081;BME280;20358;50.272;19.026;2023-02-28T10:13:19;99606.56;;;0.45;42.54
34081;BME280;20358;50.272;19.026;2023-02-28T10:16:36;99595.44;;;0.37;42.40
34081;BME280;20358;50.272;19.026;2023-02-28T10:19:58;99590.44;;;0.22;42.50
34081;BME280;20358;50.272;19.026;2023-02-28T10:23:17;99587.91;;;0.16;43.13
34081;BME280;20358;50.272;19.026;2023-02-28T10:26:29;99527.78;;;-0.19;42.32
34081;BME280;20358;50.272;19.026;2023-02-28T10:29:41;99574.13;;;0.13;42.47
34081;BME280;20358;50.272;19.026;2023-02-28T10:32:53;99576.44;;;0.32;43.67
34081;BME280;20358;50.272;19.026;2023-02-28T10:35:59;99571.78;;;0.57;42.71
34081;BME280;20358;50.272;19.026;2023-02-28T10:39:36;99574.09;;;0.75;43.25
34081;BME280;20358;50.272;19.026;2023-02-28T10:42:56;99563.56;;;0.81;42.50
34081;BME280;20358;50.272;19.026;2023-02-28T10:46:13;99564.00;;;1.09;42.48
34081;BME280;20358;50.272;19.026;2023-02-28T10:49:31;99576.88;;;1.15;42.25
34081;BME280;20358;50.272;19.026;2023-02-28T10:52:39;99555.41;;;1.04;42.21
34081;BME280;20358;50.272;19.026;2023-02-28T10:55:56;99555.47;;;1.01;41.39
34081;BME280;20358;50.272;19.026;2023-02-28T10:59:28;99564.03;;;1.06;42.24
34081;BME280;20358;50.272;19.026;2023-02-28T11:02:36;99566.50;;;1.13;41.21
34081;BME280;20358;50.272;19.026;2023-02-28T11:05:48;99557.03;;;1.09;42.64
34081;BME280;20358;50.272;19.026;2023-02-28T11:08:56;99548.47;;;1.03;41.61
34081;BME280;20358;50.272;19.026;2023-02-28T11:12:07;99559.56;;;1.12;41.42
34081;BME280;20358;50.272;19.026;2023-02-28T11:15:27;99538.81;;;1.09;41.86
34081;BME280;20358;50.272;19.026;2023-02-28T11:18:41;99553.63;;;1.06;41.63
34081;BME280;20358;50.272;19.026;2023-02-28T11:21:57;99541.72;;;0.91;41.76
34081;BME280;20358;50.272;19.026;2023-02-28T11:25:09;99541.81;;;0.87;42.01
34081;BME280;20358;50.272;19.026;2023-02-28T11:28:27;99527.50;;;0.62;40.56
34081;BME280;20358;50.272;19.026;2023-02-28T11:31:35;99538.84;;;0.56;41.58
34081;BME280;20358;50.272;19.026;2023-02-28T11:34:41;99527.66;;;0.51;43.00
34081;BME280;20358;50.272;19.026;2023-02-28T11:37:52;99529.41;;;0.52;42.10
34081;BME280;20358;50.272;19.026;2023-02-28T11:41:22;99511.25;;;0.47;41.88
34081;BME280;20358;50.272;19.026;2023-02-28T11:45:04;99499.13;;;0.49;41.95
34081;BME280;20358;50.272;19.026;2023-02-28T11:48:26;99519.78;;;0.55;41.74
34081;BME280;20358;50.272;19.026;2023-02-28T11:51:49;99513.84;;;0.49;42.31
34081;BME280;20358;50.272;19.026;2023-02-28T11:55:16;99506.19;;;0.38;42.41
34081;BME280;20358;50.272;19.026;2023-02-28T11:58:38;99510.66;;;0.30;42.87
34081;BME280;20358;50.272;19.026;2023-02-28T12:02:10;99508.09;;;0.27;42.43
34081;BME280;20358;50.272;19.026;2023-02-28T12:05:36;99502.97;;;0.21;42.96
34081;BME280;20358;50.272;19.026;2023-02-28T12:08:59;99496.09;;;0.20;42.78
34081;BME280;20358;50.272;19.026;2023-02-28T12:12:24;99485.50;;;0.32;42.52
34081;BME280;20358;50.272;19.026;2023-02-28T12:15:58;99481.91;;;0.39;42.97
34081;BME280;20358;50.272;19.026;2023-02-28T12:19:34;99480.97;;;0.45;42.21
34081;BME280;20358;50.272;19.026;2023-02-28T12:22:55;99490.38;;;0.53;43.14
34081;BME280;20358;50.272;19.026;2023-02-28T12:26:22;99484.34;;;0.51;43.15
34081;BME280;20358;50.272;19.026;2023-02-28T12:29:46;99492.31;;;0.39;42.64
34081;BME280;20358;50.272;19.026;2023-02-28T12:33:03;99497.75;;;0.24;42.07
34081;BME280;20358;50.272;19.026;2023-02-28T12:36:17;99492.66;;;0.18;42.14
34081;BME280;20358;50.272;19.026;2023-02-28T12:39:31;99492.59;;;0.21;42.49
34081;BME280;20358;50.272;19.026;2023-02-28T12:42:53;99495.25;;;0.18;43.40
34081;BME280;20358;50.272;19.026;2023-02-28T12:46:12;99489.28;;;0.13;43.63
34081;BME280;20358;50.272;19.026;2023-02-28T12:49:28;99470.25;;;0.08;43.38
34081;BME280;20358;50.272;19.026;2023-02-28T12:52:48;99472.00;;;0.09;43.51
34081;BME280;20358;50.272;19.026;2023-02-28T12:56:16;99477.28;;;0.03;43.22
34081;BME280;20358;50.272;19.026;2023-02-28T12:59:36;99484.22;;;0.01;43.74
34081;BME280;20358;50.272;19.026;2023-02-28T13:03:19;99470.53;;;-0.10;44.08
34081;BME280;20358;50.272;19.026;2023-02-28T13:07:06;99477.44;;;-0.09;44.28
34081;BME280;20358;50.272;19.026;2023-02-28T13:10:24;99464.50;;;-0.11;44.08
34081;BME280;20358;50.272;19.026;2023-02-28T13:13:45;99476.38;;;0.06;43.72
34081;BME280;20358;50.272;19.026;2023-02-28T13:17:01;99457.25;;;0.11;43.65
34081;BME280;20358;50.272;19.026;2023-02-28T13:20:21;99461.38;;;0.24;43.70
34081;BME280;20358;50.272;19.026;2023-02-28T13:23:56;99478.53;;;0.34;44.07
34081;BME280;20358;50.272;19.026;2023-02-28T13:27:23;99475.06;;;0.35;43.14
34081;BME280;20358;50.272;19.026;2023-02-28T13:31:03;99464.28;;;0.05;43.47
34081;BME280;20358;50.272;19.026;2023-02-28T13:34:15;99455.53;;;0.10;44.04
34081;BME280;20358;50.272;19.026;2023-02-28T13:37:42;99465.03;;;0.11;43.23
34081;BME280;20358;50.272;19.026;2023-02-28T13:40:52;99461.53;;;0.15;43.67
34081;BME280;20358;50.272;19.026;2023-02-28T13:44:02;99458.84;;;0.20;43.23
34081;BME280;20358;50.272;19.026;2023-02-28T13:47:22;99459.69;;;0.23;43.51
34081;BME280;20358;50.272;19.026;2023-02-28T13:50:35;99461.31;;;0.27;43.18
34081;BME280;20358;50.272;19.026;2023-02-28T13:54:00;99464.75;;;0.31;43.84
34081;BME280;20358;50.272;19.026;2023-02-28T13:57:30;99457.88;;;0.28;43.43
34081;BME280;20358;50.272;19.026;2023-02-28T14:01:06;99442.13;;;0.37;43.83
34081;BME280;20358;50.272;19.026;2023-02-28T14:04:49;99448.75;;;0.55;43.54
34081;BME280;20358;50.272;19.026;2023-02-28T14:08:10;99437.56;;;0.50;42.10
34081;BME280;20358;50.272;19.026;2023-02-28T14:11:34;99446.97;;;0.58;42.95
34081;BME280;20358;50.272;19.026;2023-02-28T14:14:55;99440.13;;;0.54;43.32
34081;BME280;20358;50.272;19.026;2023-02-28T14:18:05;99436.75;;;0.49;42.79
34081;BME280;20358;50.272;19.026;2023-02-28T14:21:24;99421.28;;;0.40;42.65
34081;BME280;20358;50.272;19.026;2023-02-28T14:24:54;99435.06;;;0.45;43.56
34081;BME280;20358;50.272;19.026;2023-02-28T14:28:24;99423.09;;;0.35;43.10
34081;BME280;20358;50.272;19.026;2023-02-28T14:31:53;99425.66;;;0.38;43.65
34081;BME280;20358;50.272;19.026;2023-02-28T14:35:18;99428.22;;;0.41;43.33
34081;BME280;20358;50.272;19.026;2023-02-28T14:38:41;99417.91;;;0.35;42.89
34081;BME280;20358;50.272;19.026;2023-02-28T14:41:52;99410.94;;;0.37;43.34
34081;BME280;20358;50.272;19.026;2023-02-28T14:45:02;99422.06;;;0.47;43.21
34081;BME280;20358;50.272;19.026;2023-02-28T14:48:10;99421.00;;;0.55;42.31
34081;BME280;20358;50.272;19.026;2023-02-28T14:51:19;99410.63;;;0.55;43.00
34081;BME280;20358;50.272;19.026;2023-02-28T14:54:27;99417.50;;;0.60;42.63
34081;BME280;20358;50.272;19.026;2023-02-28T14:57:39;99420.00;;;0.63;42.63
34081;BME280;20358;50.272;19.026;2023-02-28T15:00:52;99413.06;;;0.65;42.59
34081;BME280;20358;50.272;19.026;2023-02-28T15:04:03;99414.84;;;0.61;42.24
34081;BME280;20358;50.272;19.026;2023-02-28T15:07:14;99419.31;;;0.54;42.01
34081;BME280;20358;50.272;19.026;2023-02-28T15:10:23;99412.34;;;0.56;42.38
34081;BME280;20358;50.272;19.026;2023-02-28T15:13:37;99357.41;;;0.27;43.35
34081;BME280;20358;50.272;19.026;2023-02-28T15:16:56;99405.41;;;0.55;42.93
34081;BME280;20358;50.272;19.026;2023-02-28T15:20:10;99418.31;;;0.62;42.88
34081;BME280;20358;50.272;19.026;2023-02-28T15:23:21;99415.72;;;0.62;42.80
34081;BME280;20358;50.272;19.026;2023-02-28T15:26:32;99422.81;;;0.52;42.29
34081;BME280;20358;50.272;19.026;2023-02-28T15:29:45;99423.59;;;0.57;43.43
34081;BME280;20358;50.272;19.026;2023-02-28T15:33:19;99436.66;;;0.52;42.94
34081;BME280;20358;50.272;19.026;2023-02-28T15:36:30;99416.81;;;0.48;43.05
34081;BME280;20358;50.272;19.026;2023-02-28T15:39:43;99422.94;;;0.44;42.88
34081;BME280;20358;50.272;19.026;2023-02-28T15:43:04;99423.00;;;0.41;42.71
34081;BME280;20358;50.272;19.026;2023-02-28T15:46:13;99421.31;;;0.37;42.92
34081;BME280;20358;50.272;19.026;2023-02-28T15:49:23;99409.31;;;0.30;43.20
34081;BME280;20358;50.272;19.026;2023-02-28T15:52:38;99421.44;;;0.31;43.26
34081;BME280;20358;50.272;19.026;2023-02-28T15:55:53;99387.28;;;0.02;43.32
34081;BME280;20358;50.272;19.026;2023-02-28T15:59:06;99425.16;;;0.15;43.46
34081;BME280;20358;50.272;19.026;2023-02-28T16:02:21;99339.38;;;-0.35;43.37
34081;BME280;20358;50.272;19.026;2023-02-28T16:05:31;99426.16;;;0.07;43.65
34081;BME280;20358;50.272;19.026;2023-02-28T16:08:37;99418.47;;;-0.01;43.51
34081;BME280;20358;50.272;19.026;2023-02-28T16:11:46;99414.25;;;-0.08;44.14
34081;BME280;20358;50.272;19.026;2023-02-28T16:14:57;99427.09;;;0.01;44.58
34081;BME280;20358;50.272;19.026;2023-02-28T16:18:10;99425.28;;;0.06;44.73
34081;BME280;20358;50.272;19.026;2023-02-28T16:21:19;99424.38;;;0.09;44.18
34081;BME280;20358;50.272;19.026;2023-02-28T16:24:26;99423.50;;;0.10;44.67
34081;BME280;20358;50.272;19.026;2023-02-28T16:27:36;99419.19;;;0.09;44.31
34081;BME280;20358;50.272;19.026;2023-02-28T16:30:44;99423.53;;;0.08;44.86
34081;BME280;20358;50.272;19.026;2023-02-28T16:33:49;99427.81;;;0.11;44.90
34081;BME280;20358;50.272;19.026;2023-02-28T16:36:59;99440.78;;;0.12;44.31
34081;BME280;20358;50.272;19.026;2023-02-28T16:40:05;99430.44;;;0.09;44.73
34081;BME280;20358;50.272;19.026;2023-02-28T16:43:16;99443.47;;;0.06;44.67
34081;BME280;20358;50.272;19.026;2023-02-28T16:46:29;99439.22;;;0.02;44.88
34081;BME280;20358;50.272;19.026;2023-02-28T16:49:39;99446.22;;;-0.03;45.23
34081;BME280;20358;50.272;19.026;2023-02-28T16:52:48;99453.19;;;-0.05;45.17
34081;BME280;20358;50.272;19.026;2023-02-28T16:55:55;99447.13;;;-0.07;45.24
34081;BME280;20358;50.272;19.026;2023-02-28T16:59:03;99450.66;;;-0.11;44.73